sensor_id;sensor_type;location;lat;lon;timestamp;temperature;humidity
11934;DHT22;6026;48.784;9.198;2022-11-10T00:00:27;11.10;99.90
11934;DHT22;6026;48.784;9.198;2022-11-10T00:02:52;11.10;99.90
11934;DHT22;6026;48.784;9.198;2022-11-10T00:05:18;11.10;99.90
11934;DHT22;6026;48.784;9.198;2022-11-10T00:07:44;11.20;99.90
11934;DHT22;6026;48.784;9.198;2022-11-10T00:10:09;11.20;99.90
11934;DHT22;6026;48.784;9.198;2022-11-10T00:12:35;11.10;99.90
11934;DHT22;6026;48.784;9.198;2022-11-10T00:15:01;11.10;99.90
11934;DHT22;6026;48.784;9.198;2022-11-10T00:17:46;11.00;99.90
11934;DHT22;6026;48.784;9.198;2022-11-10T00:20:12;11.00;99.90
11934;DHT22;6026;48.784;9.198;2022-11-10T00:22:38;11.00;99.90
11934;DHT22;6026;48.784;9.198;2022-11-10T00:25:05;11.00;99.90
11934;DHT22;6026;48.784;9.198;2022-11-10T00:27:31;11.00;99.90
11934;DHT22;6026;48.784;9.198;2022-11-10T00:29:57;10.90;99.90
11934;DHT22;6026;48.784;9.198;2022-11-10T00:32:23;11.00;99.90
11934;DHT22;6026;48.784;9.198;2022-11-10T00:34:49;11.00;99.90
11934;DHT22;6026;48.784;9.198;2022-11-10T00:37:14;11.00;99.90
11934;DHT22;6026;48.784;9.198;2022-11-10T00:39:40;11.00;99.90
11934;DHT22;6026;48.784;9.198;2022-11-10T00:42:05;11.00;99.90
11934;DHT22;6026;48.784;9.198;2022-11-10T00:44:32;11.00;99.90
11934;DHT22;6026;48.784;9.198;2022-11-10T00:46:57;11.00;99.90
11934;DHT22;6026;48.784;9.198;2022-11-10T00:49:23;11.00;99.90
11934;DHT22;6026;48.784;9.198;2022-11-10T00:51:49;11.00;99.90
11934;DHT22;6026;48.784;9.198;2022-11-10T00:54:15;11.00;99.90
11934;DHT22;6026;48.784;9.198;2022-11-10T00:56:40;11.00;99.90
11934;DHT22;6026;48.784;9.198;2022-11-10T00:59:06;11.00;99.90
11934;DHT22;6026;48.784;9.198;2022-11-10T01:01:31;11.00;99.90
11934;DHT22;6026;48.784;9.198;2022-11-10T01:03:57;10.90;99.90
11934;DHT22;6026;48.784;9.198;2022-11-10T01:06:23;10.90;99.90
11934;DHT22;6026;48.784;9.198;2022-11-10T01:08:48;10.90;99.90
11934;DHT22;6026;48.784;9.198;2022-11-10T01:11:16;10.90;99.90
11934;DHT22;6026;48.784;9.198;2022-11-10T01:13:43;10.90;99.90
11934;DHT22;6026;48.784;9.198;2022-11-10T01:16:20;10.90;99.90
11934;DHT22;6026;48.784;9.198;2022-11-10T01:18:54;10.90;99.90
11934;DHT22;6026;48.784;9.198;2022-11-10T01:21:20;10.80;99.90
11934;DHT22;6026;48.784;9.198;2022-11-10T01:23:47;10.80;99.90
11934;DHT22;6026;48.784;9.198;2022-11-10T01:26:13;10.80;99.90
11934;DHT22;6026;48.784;9.198;2022-11-10T01:28:39;10.80;99.90
11934;DHT22;6026;48.784;9.198;2022-11-10T01:31:11;10.80;99.90
11934;DHT22;6026;48.784;9.198;2022-11-10T01:33:37;10.70;99.90
11934;DHT22;6026;48.784;9.198;2022-11-10T01:36:03;10.70;99.90
11934;DHT22;6026;48.784;9.198;2022-11-10T01:38:31;10.70;99.90
11934;DHT22;6026;48.784;9.198;2022-11-10T01:40:58;10.70;99.90
11934;DHT22;6026;48.784;9.198;2022-11-10T01:43:24;10.60;99.90
11934;DHT22;6026;48.784;9.198;2022-11-10T01:46:12;10.60;99.90
11934;DHT22;6026;48.784;9.198;2022-11-10T01:48:51;10.60;99.90
11934;DHT22;6026;48.784;9.198;2022-11-10T01:51:37;10.60;99.90
11934;DHT22;6026;48.784;9.198;2022-11-10T01:54:40;10.50;99.90
11934;DHT22;6026;48.784;9.198;2022-11-10T01:57:01;10.50;99.90
11934;DHT22;6026;48.784;9.198;2022-11-10T01:59:29;10.50;99.90
11934;DHT22;6026;48.784;9.198;2022-11-10T02:02:07;10.40;99.90
11934;DHT22;6026;48.784;9.198;2022-11-10T02:04:35;10.40;99.90
11934;DHT22;6026;48.784;9.198;2022-11-10T02:07:01;10.40;99.90
11934;DHT22;6026;48.784;9.198;2022-11-10T02:09:27;10.40;99.90
11934;DHT22;6026;48.784;9.198;2022-11-10T02:11:54;10.30;99.90
11934;DHT22;6026;48.784;9.198;2022-11-10T02:14:20;10.30;99.90
11934;DHT22;6026;48.784;9.198;2022-11-10T02:16:46;10.30;99.90
11934;DHT22;6026;48.784;9.198;2022-11-10T02:19:20;10.20;99.90
11934;DHT22;6026;48.784;9.198;2022-11-10T02:21:46;10.20;99.90
11934;DHT22;6026;48.784;9.198;2022-11-10T02:24:12;10.20;99.90
11934;DHT22;6026;48.784;9.198;2022-11-10T02:26:43;10.10;99.90
11934;DHT22;6026;48.784;9.198;2022-11-10T02:29:09;10.10;99.90
11934;DHT22;6026;48.784;9.198;2022-11-10T02:31:34;10.10;99.90
11934;DHT22;6026;48.784;9.198;2022-11-10T02:34:00;10.10;99.90
11934;DHT22;6026;48.784;9.198;2022-11-10T02:36:25;10.10;99.90
11934;DHT22;6026;48.784;9.198;2022-11-10T02:38:51;10.20;99.90
11934;DHT22;6026;48.784;9.198;2022-11-10T02:41:16;10.10;99.90
11934;DHT22;6026;48.784;9.198;2022-11-10T02:43:42;10.10;99.90
11934;DHT22;6026;48.784;9.198;2022-11-10T02:46:07;10.10;99.90
11934;DHT22;6026;48.784;9.198;2022-11-10T02:48:33;10.00;99.90
11934;DHT22;6026;48.784;9.198;2022-11-10T02:50:59;10.00;99.90
11934;DHT22;6026;48.784;9.198;2022-11-10T02:53:24;10.00;99.90
11934;DHT22;6026;48.784;9.198;2022-11-10T02:55:50;10.00;99.90
11934;DHT22;6026;48.784;9.198;2022-11-10T02:58:15;10.00;99.90
11934;DHT22;6026;48.784;9.198;2022-11-10T03:00:41;9.90;99.90
11934;DHT22;6026;48.784;9.198;2022-11-10T03:03:06;9.90;99.90
11934;DHT22;6026;48.784;9.198;2022-11-10T03:05:32;9.90;99.90
11934;DHT22;6026;48.784;9.198;2022-11-10T03:07:59;9.80;99.90
11934;DHT22;6026;48.784;9.198;2022-11-10T03:10:26;9.90;99.90
11934;DHT22;6026;48.784;9.198;2022-11-10T03:12:53;9.80;99.90
11934;DHT22;6026;48.784;9.198;2022-11-10T03:15:19;9.80;99.90
11934;DHT22;6026;48.784;9.198;2022-11-10T03:17:45;9.80;99.90
11934;DHT22;6026;48.784;9.198;2022-11-10T03:20:10;9.80;99.90
11934;DHT22;6026;48.784;9.198;2022-11-10T03:22:36;9.80;99.90
11934;DHT22;6026;48.784;9.198;2022-11-10T03:25:03;9.80;99.90
11934;DHT22;6026;48.784;9.198;2022-11-10T03:27:28;9.80;99.90
11934;DHT22;6026;48.784;9.198;2022-11-10T03:29:54;9.80;99.90
11934;DHT22;6026;48.784;9.198;2022-11-10T03:32:20;9.80;99.90
11934;DHT22;6026;48.784;9.198;2022-11-10T03:34:45;9.80;99.90
11934;DHT22;6026;48.784;9.198;2022-11-10T03:37:11;9.90;99.90
11934;DHT22;6026;48.784;9.198;2022-11-10T03:39:36;9.90;99.90
11934;DHT22;6026;48.784;9.198;2022-11-10T03:42:02;9.80;99.90
11934;DHT22;6026;48.784;9.198;2022-11-10T03:44:27;9.90;99.90
11934;DHT22;6026;48.784;9.198;2022-11-10T03:46:53;9.80;99.90
11934;DHT22;6026;48.784;9.198;2022-11-10T03:49:18;9.90;99.90
11934;DHT22;6026;48.784;9.198;2022-11-10T03:51:44;9.80;99.90
11934;DHT22;6026;48.784;9.198;2022-11-10T03:54:09;9.80;99.90
11934;DHT22;6026;48.784;9.198;2022-11-10T03:56:35;9.80;99.90
11934;DHT22;6026;48.784;9.198;2022-11-10T03:59:00;9.80;99.90
11934;DHT22;6026;48.784;9.198;2022-11-10T04:01:26;9.90;99.90
11934;DHT22;6026;48.784;9.198;2022-11-10T04:03:51;9.80;99.90
11934;DHT22;6026;48.784;9.198;2022-11-10T04:06:17;9.80;99.90
11934;DHT22;6026;48.784;9.198;2022-11-10T04:09:02;9.90;99.90
11934;DHT22;6026;48.784;9.198;2022-11-10T04:11:29;9.90;99.90
11934;DHT22;6026;48.784;9.198;2022-11-10T04:14:14;9.90;99.90
11934;DHT22;6026;48.784;9.198;2022-11-10T04:16:58;9.90;99.90
11934;DHT22;6026;48.784;9.198;2022-11-10T04:19:24;9.90;99.90
11934;DHT22;6026;48.784;9.198;2022-11-10T04:21:50;9.90;99.90
11934;DHT22;6026;48.784;9.198;2022-11-10T04:24:15;9.90;99.90
11934;DHT22;6026;48.784;9.198;2022-11-10T04:26:42;9.90;99.90
11934;DHT22;6026;48.784;9.198;2022-11-10T04:29:09;9.90;99.90
11934;DHT22;6026;48.784;9.198;2022-11-10T04:31:37;9.90;99.90
11934;DHT22;6026;48.784;9.198;2022-11-10T04:34:04;9.90;99.90
11934;DHT22;6026;48.784;9.198;2022-11-10T04:36:33;9.80;99.90
11934;DHT22;6026;48.784;9.198;2022-11-10T04:38:58;9.90;99.90
11934;DHT22;6026;48.784;9.198;2022-11-10T04:41:25;9.90;99.90
11934;DHT22;6026;48.784;9.198;2022-11-10T04:43:52;9.90;99.90
11934;DHT22;6026;48.784;9.198;2022-11-10T04:48:49;9.70;99.90
11934;DHT22;6026;48.784;9.198;2022-11-10T04:51:15;9.70;99.90
11934;DHT22;6026;48.784;9.198;2022-11-10T04:53:41;9.60;99.90
11934;DHT22;6026;48.784;9.198;2022-11-10T04:56:08;9.50;99.90
11934;DHT22;6026;48.784;9.198;2022-11-10T04:58:35;9.50;99.90
11934;DHT22;6026;48.784;9.198;2022-11-10T05:01:00;9.40;99.90
11934;DHT22;6026;48.784;9.198;2022-11-10T05:03:26;9.40;99.90
11934;DHT22;6026;48.784;9.198;2022-11-10T05:05:51;9.30;99.90
11934;DHT22;6026;48.784;9.198;2022-11-10T05:08:17;9.20;99.90
11934;DHT22;6026;48.784;9.198;2022-11-10T05:10:42;9.20;99.90
11934;DHT22;6026;48.784;9.198;2022-11-10T05:13:08;9.20;99.90
11934;DHT22;6026;48.784;9.198;2022-11-10T05:15:34;9.10;99.90
11934;DHT22;6026;48.784;9.198;2022-11-10T05:18:00;9.00;99.90
11934;DHT22;6026;48.784;9.198;2022-11-10T05:20:26;9.00;99.90
11934;DHT22;6026;48.784;9.198;2022-11-10T05:22:52;9.00;99.90
11934;DHT22;6026;48.784;9.198;2022-11-10T05:25:38;9.00;99.90
11934;DHT22;6026;48.784;9.198;2022-11-10T05:28:05;8.90;99.90
11934;DHT22;6026;48.784;9.198;2022-11-10T05:30:31;8.80;99.90
11934;DHT22;6026;48.784;9.198;2022-11-10T05:32:57;8.80;99.90
11934;DHT22;6026;48.784;9.198;2022-11-10T05:35:23;8.80;99.90
11934;DHT22;6026;48.784;9.198;2022-11-10T05:37:48;8.70;99.90
11934;DHT22;6026;48.784;9.198;2022-11-10T05:40:14;8.70;99.90
11934;DHT22;6026;48.784;9.198;2022-11-10T05:42:45;8.70;99.90
11934;DHT22;6026;48.784;9.198;2022-11-10T05:45:11;8.70;99.90
11934;DHT22;6026;48.784;9.198;2022-11-10T05:47:37;8.60;99.90
11934;DHT22;6026;48.784;9.198;2022-11-10T05:50:04;8.60;99.90
11934;DHT22;6026;48.784;9.198;2022-11-10T05:52:29;8.60;99.90
11934;DHT22;6026;48.784;9.198;2022-11-10T05:54:55;8.60;99.90
11934;DHT22;6026;48.784;9.198;2022-11-10T05:57:20;8.60;99.90
11934;DHT22;6026;48.784;9.198;2022-11-10T05:59:46;8.70;99.90
11934;DHT22;6026;48.784;9.198;2022-11-10T06:02:11;8.70;99.90
11934;DHT22;6026;48.784;9.198;2022-11-10T06:04:37;8.70;99.90
11934;DHT22;6026;48.784;9.198;2022-11-10T06:07:03;8.70;99.90
11934;DHT22;6026;48.784;9.198;2022-11-10T06:09:28;8.80;99.90
11934;DHT22;6026;48.784;9.198;2022-11-10T06:11:54;8.80;99.90
11934;DHT22;6026;48.784;9.198;2022-11-10T06:14:20;8.80;99.90
11934;DHT22;6026;48.784;9.198;2022-11-10T06:16:45;8.70;99.90
11934;DHT22;6026;48.784;9.198;2022-11-10T06:19:11;8.70;99.90
11934;DHT22;6026;48.784;9.198;2022-11-10T06:21:36;8.70;99.90
11934;DHT22;6026;48.784;9.198;2022-11-10T06:24:02;8.70;99.90
11934;DHT22;6026;48.784;9.198;2022-11-10T06:26:28;8.60;99.90
11934;DHT22;6026;48.784;9.198;2022-11-10T06:28:53;8.60;99.90
11934;DHT22;6026;48.784;9.198;2022-11-10T06:31:19;8.60;99.90
11934;DHT22;6026;48.784;9.198;2022-11-10T06:33:44;8.60;99.90
11934;DHT22;6026;48.784;9.198;2022-11-10T06:36:10;8.60;99.90
11934;DHT22;6026;48.784;9.198;2022-11-10T06:38:36;8.60;99.90
11934;DHT22;6026;48.784;9.198;2022-11-10T06:41:01;8.60;99.90
11934;DHT22;6026;48.784;9.198;2022-11-10T06:43:27;8.60;99.90
11934;DHT22;6026;48.784;9.198;2022-11-10T06:45:52;8.60;99.90
11934;DHT22;6026;48.784;9.198;2022-11-10T06:48:18;8.60;99.90
11934;DHT22;6026;48.784;9.198;2022-11-10T06:50:43;8.60;99.90
11934;DHT22;6026;48.784;9.198;2022-11-10T06:53:09;8.60;99.90
11934;DHT22;6026;48.784;9.198;2022-11-10T06:55:35;8.60;99.90
11934;DHT22;6026;48.784;9.198;2022-11-10T06:58:01;8.60;99.90
11934;DHT22;6026;48.784;9.198;2022-11-10T07:00:28;8.60;99.90
11934;DHT22;6026;48.784;9.198;2022-11-10T07:03:05;8.60;99.90
11934;DHT22;6026;48.784;9.198;2022-11-10T07:05:35;8.60;99.90
11934;DHT22;6026;48.784;9.198;2022-11-10T07:08:09;8.60;99.90
11934;DHT22;6026;48.784;9.198;2022-11-10T07:10:35;8.70;99.90
11934;DHT22;6026;48.784;9.198;2022-11-10T07:13:02;8.80;99.90
11934;DHT22;6026;48.784;9.198;2022-11-10T07:15:29;8.80;99.90
11934;DHT22;6026;48.784;9.198;2022-11-10T07:17:54;8.80;99.90
11934;DHT22;6026;48.784;9.198;2022-11-10T07:20:20;8.80;99.90
11934;DHT22;6026;48.784;9.198;2022-11-10T07:22:46;8.90;99.90
11934;DHT22;6026;48.784;9.198;2022-11-10T07:25:11;8.90;99.90
11934;DHT22;6026;48.784;9.198;2022-11-10T07:27:37;8.90;99.90
11934;DHT22;6026;48.784;9.198;2022-11-10T07:30:04;9.00;99.90
11934;DHT22;6026;48.784;9.198;2022-11-10T07:32:30;9.00;99.90
11934;DHT22;6026;48.784;9.198;2022-11-10T07:34:56;9.10;99.90
11934;DHT22;6026;48.784;9.198;2022-11-10T07:37:21;9.20;99.90
11934;DHT22;6026;48.784;9.198;2022-11-10T07:39:47;9.20;99.90
11934;DHT22;6026;48.784;9.198;2022-11-10T07:42:12;9.30;99.90
11934;DHT22;6026;48.784;9.198;2022-11-10T07:44:38;9.20;99.90
11934;DHT22;6026;48.784;9.198;2022-11-10T07:47:03;9.30;99.90
11934;DHT22;6026;48.784;9.198;2022-11-10T07:49:29;9.40;99.90
11934;DHT22;6026;48.784;9.198;2022-11-10T07:51:54;9.40;99.90
11934;DHT22;6026;48.784;9.198;2022-11-10T07:54:20;9.50;99.90
11934;DHT22;6026;48.784;9.198;2022-11-10T07:56:46;9.70;99.90
11934;DHT22;6026;48.784;9.198;2022-11-10T07:59:11;9.90;99.90
11934;DHT22;6026;48.784;9.198;2022-11-10T08:01:37;10.10;99.90
11934;DHT22;6026;48.784;9.198;2022-11-10T08:04:02;10.30;99.90
11934;DHT22;6026;48.784;9.198;2022-11-10T08:06:28;10.60;99.90
11934;DHT22;6026;48.784;9.198;2022-11-10T08:08:53;10.80;99.90
11934;DHT22;6026;48.784;9.198;2022-11-10T08:11:19;10.90;99.90
11934;DHT22;6026;48.784;9.198;2022-11-10T08:13:44;11.10;99.90
11934;DHT22;6026;48.784;9.198;2022-11-10T08:16:10;11.30;99.90
11934;DHT22;6026;48.784;9.198;2022-11-10T08:18:36;11.50;99.90
11934;DHT22;6026;48.784;9.198;2022-11-10T08:21:02;11.50;99.90
11934;DHT22;6026;48.784;9.198;2022-11-10T08:23:28;11.60;99.90
11934;DHT22;6026;48.784;9.198;2022-11-10T08:25:57;11.70;99.90
11934;DHT22;6026;48.784;9.198;2022-11-10T08:28:23;12.00;99.90
11934;DHT22;6026;48.784;9.198;2022-11-10T08:30:48;12.30;99.90
11934;DHT22;6026;48.784;9.198;2022-11-10T08:33:16;12.60;99.90
11934;DHT22;6026;48.784;9.198;2022-11-10T08:35:44;12.90;99.90
11934;DHT22;6026;48.784;9.198;2022-11-10T08:38:21;13.30;99.90
11934;DHT22;6026;48.784;9.198;2022-11-10T08:40:47;13.70;99.90
11934;DHT22;6026;48.784;9.198;2022-11-10T08:43:13;14.20;99.90
11934;DHT22;6026;48.784;9.198;2022-11-10T08:45:41;14.70;99.90
11934;DHT22;6026;48.784;9.198;2022-11-10T08:48:10;15.20;99.90
11934;DHT22;6026;48.784;9.198;2022-11-10T08:50:35;15.60;99.90
11934;DHT22;6026;48.784;9.198;2022-11-10T08:53:07;16.00;99.90
11934;DHT22;6026;48.784;9.198;2022-11-10T08:55:34;16.60;99.90
11934;DHT22;6026;48.784;9.198;2022-11-10T08:58:01;16.90;99.90
11934;DHT22;6026;48.784;9.198;2022-11-10T09:00:29;17.40;99.90
11934;DHT22;6026;48.784;9.198;2022-11-10T09:02:55;17.70;99.90
11934;DHT22;6026;48.784;9.198;2022-11-10T09:05:22;18.20;99.90
11934;DHT22;6026;48.784;9.198;2022-11-10T09:07:48;18.40;99.90
11934;DHT22;6026;48.784;9.198;2022-11-10T09:10:15;18.60;99.90
11934;DHT22;6026;48.784;9.198;2022-11-10T09:12:41;18.90;99.90
11934;DHT22;6026;48.784;9.198;2022-11-10T09:15:08;19.30;99.90
11934;DHT22;6026;48.784;9.198;2022-11-10T09:17:35;19.60;99.90
11934;DHT22;6026;48.784;9.198;2022-11-10T09:20:00;19.90;99.90
11934;DHT22;6026;48.784;9.198;2022-11-10T09:22:26;20.00;99.90
11934;DHT22;6026;48.784;9.198;2022-11-10T09:24:52;19.90;99.90
11934;DHT22;6026;48.784;9.198;2022-11-10T09:27:17;19.90;99.90
11934;DHT22;6026;48.784;9.198;2022-11-10T09:29:43;19.90;99.90
11934;DHT22;6026;48.784;9.198;2022-11-10T09:32:09;20.10;99.90
11934;DHT22;6026;48.784;9.198;2022-11-10T09:34:34;20.20;99.90
11934;DHT22;6026;48.784;9.198;2022-11-10T09:37:00;19.90;99.90
11934;DHT22;6026;48.784;9.198;2022-11-10T09:39:25;20.30;99.90
11934;DHT22;6026;48.784;9.198;2022-11-10T09:41:51;20.50;99.90
11934;DHT22;6026;48.784;9.198;2022-11-10T09:44:31;20.90;99.90
11934;DHT22;6026;48.784;9.198;2022-11-10T09:47:08;21.20;99.90
11934;DHT22;6026;48.784;9.198;2022-11-10T09:49:43;21.10;99.90
11934;DHT22;6026;48.784;9.198;2022-11-10T09:52:11;21.20;99.90
11934;DHT22;6026;48.784;9.198;2022-11-10T09:55:02;21.40;99.90
11934;DHT22;6026;48.784;9.198;2022-11-10T09:57:29;21.70;99.90
11934;DHT22;6026;48.784;9.198;2022-11-10T09:59:55;21.90;99.90
11934;DHT22;6026;48.784;9.198;2022-11-10T10:07:40;22.60;99.90
11934;DHT22;6026;48.784;9.198;2022-11-10T10:10:31;22.50;99.90
11934;DHT22;6026;48.784;9.198;2022-11-10T10:13:14;22.50;99.90
11934;DHT22;6026;48.784;9.198;2022-11-10T10:16:07;22.40;99.90
11934;DHT22;6026;48.784;9.198;2022-11-10T10:24:15;21.90;99.90
11934;DHT22;6026;48.784;9.198;2022-11-10T10:26:48;22.00;99.90
11934;DHT22;6026;48.784;9.198;2022-11-10T10:29:23;22.20;99.90
11934;DHT22;6026;48.784;9.198;2022-11-10T10:31:50;22.40;99.90
11934;DHT22;6026;48.784;9.198;2022-11-10T10:34:19;22.50;99.90
11934;DHT22;6026;48.784;9.198;2022-11-10T10:36:45;22.50;99.90
11934;DHT22;6026;48.784;9.198;2022-11-10T10:39:30;22.50;99.90
11934;DHT22;6026;48.784;9.198;2022-11-10T10:41:58;22.40;99.90
11934;DHT22;6026;48.784;9.198;2022-11-10T10:44:24;22.40;99.90
11934;DHT22;6026;48.784;9.198;2022-11-10T10:46:54;22.10;99.90
11934;DHT22;6026;48.784;9.198;2022-11-10T10:49:25;22.40;99.90
11934;DHT22;6026;48.784;9.198;2022-11-10T10:52:16;22.70;99.90
11934;DHT22;6026;48.784;9.198;2022-11-10T10:54:42;23.00;99.90
11934;DHT22;6026;48.784;9.198;2022-11-10T10:59:47;23.10;99.90
11934;DHT22;6026;48.784;9.198;2022-11-10T11:02:30;23.30;99.90
11934;DHT22;6026;48.784;9.198;2022-11-10T11:07:37;23.10;99.90
11934;DHT22;6026;48.784;9.198;2022-11-10T11:10:17;23.30;99.90
11934;DHT22;6026;48.784;9.198;2022-11-10T11:12:43;23.50;99.90
11934;DHT22;6026;48.784;9.198;2022-11-10T11:15:22;23.20;99.90
11934;DHT22;6026;48.784;9.198;2022-11-10T11:18:02;23.50;99.90
11934;DHT22;6026;48.784;9.198;2022-11-10T11:20:50;23.20;99.90
11934;DHT22;6026;48.784;9.198;2022-11-10T11:23:44;22.60;99.90
11934;DHT22;6026;48.784;9.198;2022-11-10T11:26:42;22.60;99.90
11934;DHT22;6026;48.784;9.198;2022-11-10T11:34:46;22.70;99.90
11934;DHT22;6026;48.784;9.198;2022-11-10T11:56:40;23.00;99.90
11934;DHT22;6026;48.784;9.198;2022-11-10T12:07:59;23.20;99.90
11934;DHT22;6026;48.784;9.198;2022-11-10T12:16:27;22.40;99.90
11934;DHT22;6026;48.784;9.198;2022-11-10T12:21:53;21.80;99.90
11934;DHT22;6026;48.784;9.198;2022-11-10T12:27:22;21.50;99.90
11934;DHT22;6026;48.784;9.198;2022-11-10T12:32:47;21.40;99.90
11934;DHT22;6026;48.784;9.198;2022-11-10T12:35:18;21.50;99.90
11934;DHT22;6026;48.784;9.198;2022-11-10T12:38:22;21.60;99.90
11934;DHT22;6026;48.784;9.198;2022-11-10T12:41:00;21.10;99.90
11934;DHT22;6026;48.784;9.198;2022-11-10T12:43:40;21.50;99.90
11934;DHT22;6026;48.784;9.198;2022-11-10T12:46:12;21.70;99.90
11934;DHT22;6026;48.784;9.198;2022-11-10T12:51:19;22.30;99.90
11934;DHT22;6026;48.784;9.198;2022-11-10T12:53:47;22.30;99.90
11934;DHT22;6026;48.784;9.198;2022-11-10T12:56:29;21.70;99.90
11934;DHT22;6026;48.784;9.198;2022-11-10T12:59:35;21.90;99.90
11934;DHT22;6026;48.784;9.198;2022-11-10T13:02:15;22.10;99.90
11934;DHT22;6026;48.784;9.198;2022-11-10T13:04:42;21.60;99.90
11934;DHT22;6026;48.784;9.198;2022-11-10T13:07:09;21.80;99.90
11934;DHT22;6026;48.784;9.198;2022-11-10T13:09:39;22.10;99.90
11934;DHT22;6026;48.784;9.198;2022-11-10T13:12:17;22.00;99.90
11934;DHT22;6026;48.784;9.198;2022-11-10T13:14:44;22.20;99.90
11934;DHT22;6026;48.784;9.198;2022-11-10T13:19:57;21.90;99.90
11934;DHT22;6026;48.784;9.198;2022-11-10T13:22:32;22.20;99.90
11934;DHT22;6026;48.784;9.198;2022-11-10T13:28:02;22.30;99.90
11934;DHT22;6026;48.784;9.198;2022-11-10T13:30:44;22.20;99.90
11934;DHT22;6026;48.784;9.198;2022-11-10T13:33:28;22.10;99.90
11934;DHT22;6026;48.784;9.198;2022-11-10T13:35:56;21.70;99.90
11934;DHT22;6026;48.784;9.198;2022-11-10T13:41:32;21.90;99.90
11934;DHT22;6026;48.784;9.198;2022-11-10T13:43:57;21.70;99.90
11934;DHT22;6026;48.784;9.198;2022-11-10T13:46:36;21.20;99.90
11934;DHT22;6026;48.784;9.198;2022-11-10T13:49:18;21.10;99.90
11934;DHT22;6026;48.784;9.198;2022-11-10T13:52:03;21.30;99.90
11934;DHT22;6026;48.784;9.198;2022-11-10T14:00:00;19.90;99.90
11934;DHT22;6026;48.784;9.198;2022-11-10T14:05:02;19.30;99.90
11934;DHT22;6026;48.784;9.198;2022-11-10T14:07:34;19.00;99.90
11934;DHT22;6026;48.784;9.198;2022-11-10T14:10:06;18.80;99.90
11934;DHT22;6026;48.784;9.198;2022-11-10T14:13:00;18.60;99.90
11934;DHT22;6026;48.784;9.198;2022-11-10T14:15:41;18.20;99.90
11934;DHT22;6026;48.784;9.198;2022-11-10T14:18:23;17.70;99.90
11934;DHT22;6026;48.784;9.198;2022-11-10T14:21:00;17.40;99.90
11934;DHT22;6026;48.784;9.198;2022-11-10T14:23:47;17.00;99.90
11934;DHT22;6026;48.784;9.198;2022-11-10T14:27:04;16.70;99.90
11934;DHT22;6026;48.784;9.198;2022-11-10T14:29:27;16.50;99.90
11934;DHT22;6026;48.784;9.198;2022-11-10T14:31:54;16.20;99.90
11934;DHT22;6026;48.784;9.198;2022-11-10T14:34:20;16.00;99.90
11934;DHT22;6026;48.784;9.198;2022-11-10T14:36:55;15.70;99.90
11934;DHT22;6026;48.784;9.198;2022-11-10T14:39:30;15.50;99.90
11934;DHT22;6026;48.784;9.198;2022-11-10T14:42:02;15.40;99.90
11934;DHT22;6026;48.784;9.198;2022-11-10T14:44:29;15.40;99.90
11934;DHT22;6026;48.784;9.198;2022-11-10T14:46:56;15.30;99.90
11934;DHT22;6026;48.784;9.198;2022-11-10T14:49:36;15.30;99.90
11934;DHT22;6026;48.784;9.198;2022-11-10T14:52:02;15.10;99.90
11934;DHT22;6026;48.784;9.198;2022-11-10T14:54:28;15.00;99.90
11934;DHT22;6026;48.784;9.198;2022-11-10T14:56:54;14.80;99.90
11934;DHT22;6026;48.784;9.198;2022-11-10T14:59:21;14.60;99.90
11934;DHT22;6026;48.784;9.198;2022-11-10T15:01:52;14.50;99.90
11934;DHT22;6026;48.784;9.198;2022-11-10T15:04:26;14.30;99.90
11934;DHT22;6026;48.784;9.198;2022-11-10T15:06:53;14.30;99.90
11934;DHT22;6026;48.784;9.198;2022-11-10T15:12:04;14.20;99.90
11934;DHT22;6026;48.784;9.198;2022-11-10T15:14:39;14.20;99.90
11934;DHT22;6026;48.784;9.198;2022-11-10T15:17:09;14.10;99.90
11934;DHT22;6026;48.784;9.198;2022-11-10T15:19:52;14.00;99.90
11934;DHT22;6026;48.784;9.198;2022-11-10T15:22:35;13.90;99.90
11934;DHT22;6026;48.784;9.198;2022-11-10T15:25:09;13.80;99.90
11934;DHT22;6026;48.784;9.198;2022-11-10T15:27:37;13.70;99.90
11934;DHT22;6026;48.784;9.198;2022-11-10T15:30:20;13.60;99.90
11934;DHT22;6026;48.784;9.198;2022-11-10T15:32:47;13.60;99.90
11934;DHT22;6026;48.784;9.198;2022-11-10T15:38:04;13.50;99.90
11934;DHT22;6026;48.784;9.198;2022-11-10T15:40:32;13.40;99.90
11934;DHT22;6026;48.784;9.198;2022-11-10T15:45:54;13.30;99.90
11934;DHT22;6026;48.784;9.198;2022-11-10T15:48:21;13.10;99.90
11934;DHT22;6026;48.784;9.198;2022-11-10T15:50:52;13.00;99.90
11934;DHT22;6026;48.784;9.198;2022-11-10T15:53:29;12.90;99.90
11934;DHT22;6026;48.784;9.198;2022-11-10T15:55:55;12.90;99.90
11934;DHT22;6026;48.784;9.198;2022-11-10T15:58:21;12.80;99.90
11934;DHT22;6026;48.784;9.198;2022-11-10T16:00:48;12.70;99.90
11934;DHT22;6026;48.784;9.198;2022-11-10T16:03:16;12.70;99.90
11934;DHT22;6026;48.784;9.198;2022-11-10T16:05:42;12.60;99.90
11934;DHT22;6026;48.784;9.198;2022-11-10T16:08:22;12.60;99.90
11934;DHT22;6026;48.784;9.198;2022-11-10T16:10:52;12.50;99.90
11934;DHT22;6026;48.784;9.198;2022-11-10T16:13:24;12.40;99.90
11934;DHT22;6026;48.784;9.198;2022-11-10T16:15:51;12.30;99.90
11934;DHT22;6026;48.784;9.198;2022-11-10T16:18:22;12.30;99.90
11934;DHT22;6026;48.784;9.198;2022-11-10T16:20:49;12.30;99.90
11934;DHT22;6026;48.784;9.198;2022-11-10T16:23:15;12.20;99.90
11934;DHT22;6026;48.784;9.198;2022-11-10T16:25:41;12.20;99.90
11934;DHT22;6026;48.784;9.198;2022-11-10T16:28:12;12.10;99.90
11934;DHT22;6026;48.784;9.198;2022-11-10T16:30:39;12.10;99.90
11934;DHT22;6026;48.784;9.198;2022-11-10T16:33:15;11.90;99.90
11934;DHT22;6026;48.784;9.198;2022-11-10T16:35:41;11.80;99.90
11934;DHT22;6026;48.784;9.198;2022-11-10T16:38:33;11.60;99.90
11934;DHT22;6026;48.784;9.198;2022-11-10T16:41:00;11.50;99.90
11934;DHT22;6026;48.784;9.198;2022-11-10T16:43:27;11.50;99.90
11934;DHT22;6026;48.784;9.198;2022-11-10T16:45:56;11.40;99.90
11934;DHT22;6026;48.784;9.198;2022-11-10T16:48:25;11.40;99.90
11934;DHT22;6026;48.784;9.198;2022-11-10T16:50:53;11.50;99.90
11934;DHT22;6026;48.784;9.198;2022-11-10T16:53:30;11.30;99.90
11934;DHT22;6026;48.784;9.198;2022-11-10T16:55:56;11.40;99.90
11934;DHT22;6026;48.784;9.198;2022-11-10T16:58:25;11.40;99.90
11934;DHT22;6026;48.784;9.198;2022-11-10T17:00:59;11.40;99.90
11934;DHT22;6026;48.784;9.198;2022-11-10T17:03:37;11.40;99.90
11934;DHT22;6026;48.784;9.198;2022-11-10T17:06:04;11.40;99.90
11934;DHT22;6026;48.784;9.198;2022-11-10T17:08:32;11.40;99.90
11934;DHT22;6026;48.784;9.198;2022-11-10T17:10:58;11.40;99.90
11934;DHT22;6026;48.784;9.198;2022-11-10T17:13:24;11.30;99.90
11934;DHT22;6026;48.784;9.198;2022-11-10T17:15:52;11.20;99.90
11934;DHT22;6026;48.784;9.198;2022-11-10T17:18:20;11.20;99.90
11934;DHT22;6026;48.784;9.198;2022-11-10T17:20:50;11.10;99.90
11934;DHT22;6026;48.784;9.198;2022-11-10T17:23:22;11.00;99.90
11934;DHT22;6026;48.784;9.198;2022-11-10T17:25:48;11.00;99.90
11934;DHT22;6026;48.784;9.198;2022-11-10T17:28:16;11.00;99.90
11934;DHT22;6026;48.784;9.198;2022-11-10T17:30:42;11.00;99.90
11934;DHT22;6026;48.784;9.198;2022-11-10T17:33:08;10.90;99.90
11934;DHT22;6026;48.784;9.198;2022-11-10T17:35:43;10.80;99.90
11934;DHT22;6026;48.784;9.198;2022-11-10T17:38:22;10.70;99.90